Time;durP1;ratioP1;P1;durP2;ratioP2;P2;SDS_P1;SDS_P2;PMS_P1;PMS_P2;Temp;Humidity;BMP_temperature;BMP_pressure;BME280_temperature;BME280_humidity;BME280_pressure;Samples;Min_cycle;Max_cycle;Signal;HPM_P1;HPM_P2
2021/12/26 00:00:40;;;;;;;0.17;0.17;;;;;;;;;;6273364;22;20027;-72
2021/12/26 00:03:05;;;;;;;1.27;1.27;;;;;;;;;;6272380;22;20448;-73
2021/12/26 00:05:30;;;;;;;0.00;0.00;;;;;;;;;;6273736;22;19995;-73
2021/12/26 00:07:56;;;;;;;0.47;0.45;;;;;;;;;;6273641;22;20053;-73
2021/12/26 00:10:23;;;;;;;1.02;1.02;;;;;;;;;;6272946;22;20505;-73
2021/12/26 00:12:48;;;;;;;1.40;1.30;;;;;;;;;;6274320;22;20000;-73
2021/12/26 00:15:14;;;;;;;2.85;2.10;;;;;;;;;;6272688;22;20429;-73
2021/12/26 00:17:39;;;;;;;2.42;2.22;;;;;;;;;;6273603;22;20696;-73
2021/12/26 00:20:07;;;;;;;1.55;1.27;;;;;;;;;;6273180;22;20456;-73
2021/12/26 00:22:33;;;;;;;0.00;0.00;;;;;;;;;;6246701;22;19996;-74
2021/12/26 00:24:58;;;;;;;0.98;0.93;;;;;;;;;;6272612;22;20271;-74
2021/12/26 00:27:23;;;;;;;0.45;0.45;;;;;;;;;;6273419;22;20465;-74
2021/12/26 00:29:49;;;;;;;1.10;0.43;;;;;;;;;;6273572;22;20082;-72
2021/12/26 00:32:14;;;;;;;1.77;0.60;;;;;;;;;;6245532;22;20001;-74
2021/12/26 00:34:40;;;;;;;0.20;0.20;;;;;;;;;;6273375;22;20372;-73
2021/12/26 00:37:06;;;;;;;0.98;0.98;;;;;;;;;;6272805;22;19996;-73
2021/12/26 00:39:32;;;;;;;0.00;0.00;;;;;;;;;;6273581;22;20010;-72
2021/12/26 00:41:57;;;;;;;1.35;1.25;;;;;;;;;;6274093;22;20089;-73
2021/12/26 00:44:22;;;;;;;0.00;0.00;;;;;;;;;;6273136;22;20606;-73
2021/12/26 00:46:50;;;;;;;1.65;0.80;;;;;;;;;;6273546;22;20013;-73
2021/12/26 00:49:15;;;;;;;1.25;1.25;;;;;;;;;;6272824;22;20000;-73
2021/12/26 00:51:40;;;;;;;1.83;1.20;;;;;;;;;;6273858;22;20030;-72
2021/12/26 00:54:05;;;;;;;0.73;0.73;;;;;;;;;;6245564;22;20000;-72
2021/12/26 00:56:31;;;;;;;1.65;0.55;;;;;;;;;;6273537;22;20010;-72
2021/12/26 00:58:56;;;;;;;2.78;1.13;;;;;;;;;;6272730;22;20018;-73
2021/12/26 01:01:21;;;;;;;0.52;0.52;;;;;;;;;;6270996;22;20006;-72
2021/12/26 01:03:46;;;;;;;0.75;0.75;;;;;;;;;;6272871;22;20410;-72
2021/12/26 01:06:12;;;;;;;0.20;0.20;;;;;;;;;;6272580;22;20447;-72
2021/12/26 01:08:41;;;;;;;3.47;1.45;;;;;;;;;;6273252;22;20070;-72
2021/12/26 01:11:15;;;;;;;4.15;0.75;;;;;;;;;;6244291;22;20003;-72
2021/12/26 01:13:43;;;;;;;0.00;0.00;;;;;;;;;;6272569;22;19999;-73
2021/12/26 01:16:10;;;;;;;1.98;1.88;;;;;;;;;;6272444;22;19996;-73
2021/12/26 01:18:38;;;;;;;1.13;1.02;;;;;;;;;;6272765;22;20379;-73
2021/12/26 01:21:16;;;;;;;6.82;2.33;;;;;;;;;;6272271;22;20301;-71
2021/12/26 01:23:42;;;;;;;2.00;1.60;;;;;;;;;;6272792;22;19996;-71
2021/12/26 01:26:07;;;;;;;0.90;0.85;;;;;;;;;;6271784;22;20016;-71
2021/12/26 01:28:33;;;;;;;1.02;0.80;;;;;;;;;;6272635;22;20350;-71
2021/12/26 01:30:58;;;;;;;0.47;0.32;;;;;;;;;;6272422;22;20457;-71
2021/12/26 01:33:24;;;;;;;1.13;0.90;;;;;;;;;;6271860;22;19999;-71
2021/12/26 01:35:49;;;;;;;3.50;1.10;;;;;;;;;;6272761;22;20325;-71
2021/12/26 01:38:15;;;;;;;1.13;0.70;;;;;;;;;;6272051;22;20425;-72
2021/12/26 01:40:44;;;;;;;0.80;0.80;;;;;;;;;;6272733;22;20004;-72
2021/12/26 01:43:10;;;;;;;0.00;0.00;;;;;;;;;;6271777;22;20364;-71
2021/12/26 01:45:35;;;;;;;1.65;0.65;;;;;;;;;;6272337;22;20003;-71
2021/12/26 01:48:02;;;;;;;0.55;0.55;;;;;;;;;;6271118;22;20000;-72
2021/12/26 01:50:28;;;;;;;2.60;2.17;;;;;;;;;;6272221;22;20010;-71
2021/12/26 01:52:53;;;;;;;1.55;1.45;;;;;;;;;;6272402;22;20049;-71
2021/12/26 01:55:37;;;;;;;4.93;1.52;;;;;;;;;;6271428;22;20267;-72
2021/12/26 01:58:03;;;;;;;2.05;1.58;;;;;;;;;;6271517;22;20007;-72
2021/12/26 02:00:29;;;;;;;0.08;0.08;;;;;;;;;;6272525;22;20003;-72
2021/12/26 02:02:54;;;;;;;2.55;1.42;;;;;;;;;;6272524;22;20696;-71
2021/12/26 02:05:19;;;;;;;4.05;3.78;;;;;;;;;;6271716;22;20008;-71
2021/12/26 02:07:44;;;;;;;2.42;1.58;;;;;;;;;;6272576;22;20429;-71
2021/12/26 02:10:10;;;;;;;2.92;2.03;;;;;;;;;;6271538;22;20008;-71
2021/12/26 02:12:35;;;;;;;0.00;0.00;;;;;;;;;;6272646;22;20049;-72
2021/12/26 02:15:00;;;;;;;0.57;0.57;;;;;;;;;;6272028;22;19992;-72
2021/12/26 02:17:27;;;;;;;0.00;0.00;;;;;;;;;;6271884;22;20003;-73
2021/12/26 02:19:54;;;;;;;0.47;0.47;;;;;;;;;;6272731;22;20321;-72
2021/12/26 02:22:27;;;;;;;0.00;0.00;;;;;;;;;;6271983;22;20429;-72
2021/12/26 02:27:33;;;;;;;0.43;0.43;;;;;;;;;;6271290;22;20029;-72
2021/12/26 02:30:08;;;;;;;1.23;1.23;;;;;;;;;;6272418;22;20284;-73
2021/12/26 02:32:34;;;;;;;0.45;0.45;;;;;;;;;;6272588;22;20213;-72
2021/12/26 02:34:59;;;;;;;0.00;0.00;;;;;;;;;;6272209;22;20487;-72
2021/12/26 02:37:25;;;;;;;0.57;0.57;;;;;;;;;;6272284;22;19999;-73
2021/12/26 02:39:50;;;;;;;0.20;0.20;;;;;;;;;;6272150;22;20038;-72
2021/12/26 02:42:20;;;;;;;0.00;0.00;;;;;;;;;;6271650;22;20008;-72
2021/12/26 02:44:45;;;;;;;;;;;;;;;;;;6272105;22;20004;-72
2021/12/26 02:47:10;;;;;;;0.00;0.00;;;;;;;;;;6271773;22;20244;-72
2021/12/26 02:49:36;;;;;;;0.80;0.77;;;;;;;;;;6272359;22;20010;-72
2021/12/26 02:52:01;;;;;;;0.85;0.80;;;;;;;;;;6272009;22;20344;-71
2021/12/26 02:54:26;;;;;;;0.00;0.00;;;;;;;;;;6271089;22;20325;-72
2021/12/26 02:56:52;;;;;;;1.30;0.93;;;;;;;;;;6271653;22;20056;-71
2021/12/26 02:59:17;;;;;;;1.08;0.65;;;;;;;;;;6271650;22;20402;-71
2021/12/26 03:01:42;;;;;;;1.52;1.50;;;;;;;;;;6272122;22;20446;-71
2021/12/26 03:04:09;;;;;;;0.30;0.30;;;;;;;;;;6271587;22;19996;-71
2021/12/26 03:07:02;;;;;;;1.02;1.02;;;;;;;;;;6271981;22;20027;-71
2021/12/26 03:09:21;;;;;;;0.05;0.05;;;;;;;;;;6271017;22;20081;-71
2021/12/26 03:11:47;;;;;;;2.85;2.75;;;;;;;;;;6271821;22;19995;-71
2021/12/26 03:14:12;;;;;;;0.40;0.40;;;;;;;;;;6271661;22;19992;-72
2021/12/26 03:16:44;;;;;;;0.00;0.00;;;;;;;;;;6272016;22;20074;-72
2021/12/26 03:19:09;;;;;;;2.15;1.95;;;;;;;;;;6271332;22;20409;-72
2021/12/26 03:21:35;;;;;;;1.02;1.02;;;;;;;;;;6272221;22;20023;-72
2021/12/26 03:24:00;;;;;;;0.90;0.90;;;;;;;;;;6272056;22;20006;-71
2021/12/26 03:26:25;;;;;;;0.93;0.93;;;;;;;;;;6270140;22;20016;-71
2021/12/26 03:28:50;;;;;;;0.90;0.90;;;;;;;;;;6271919;22;20004;-71
2021/12/26 03:31:16;;;;;;;0.00;0.00;;;;;;;;;;6271421;22;20375;-71
2021/12/26 03:33:41;;;;;;;0.45;0.20;;;;;;;;;;6271659;22;20003;-71
2021/12/26 03:36:06;;;;;;;0.20;0.20;;;;;;;;;;6271052;22;19992;-71
2021/12/26 03:38:33;;;;;;;0.38;0.38;;;;;;;;;;6272106;22;20000;-71
2021/12/26 03:40:58;;;;;;;0.68;0.68;;;;;;;;;;6244572;22;20488;-71
2021/12/26 03:43:24;;;;;;;4.03;3.72;;;;;;;;;;6271362;22;20000;-71
2021/12/26 03:45:50;;;;;;;0.03;0.03;;;;;;;;;;6271879;22;20002;-71
2021/12/26 03:48:16;;;;;;;3.05;1.40;;;;;;;;;;6244339;22;20000;-72
2021/12/26 03:50:42;;;;;;;0.20;0.20;;;;;;;;;;6271710;22;20004;-71
2021/12/26 03:53:09;;;;;;;2.40;2.30;;;;;;;;;;6270958;22;19996;-70
2021/12/26 03:55:34;;;;;;;0.00;0.00;;;;;;;;;;6272301;22;20003;-71
2021/12/26 03:57:59;;;;;;;1.65;1.50;;;;;;;;;;6274018;22;20047;-70
2021/12/26 04:00:26;;;;;;;1.20;1.20;;;;;;;;;;6273166;22;20000;-71
2021/12/26 04:02:54;;;;;;;3.63;1.15;;;;;;;;;;6273794;22;20362;-71
2021/12/26 04:05:19;;;;;;;1.13;1.13;;;;;;;;;;6245746;22;20007;-71
2021/12/26 04:07:45;;;;;;;0.10;0.10;;;;;;;;;;6274028;22;20004;-70
2021/12/26 04:10:11;;;;;;;0.70;0.70;;;;;;;;;;6272814;22;20045;-69
2021/12/26 04:12:37;;;;;;;0.10;0.10;;;;;;;;;;6273624;22;20004;-70
2021/12/26 04:15:06;;;;;;;0.00;0.00;;;;;;;;;;6273793;22;20425;-70
2021/12/26 04:17:31;;;;;;;0.00;0.00;;;;;;;;;;6273195;22;20421;-70
2021/12/26 04:19:56;;;;;;;1.00;1.00;;;;;;;;;;6273582;22;20011;-70
2021/12/26 04:22:22;;;;;;;1.08;1.08;;;;;;;;;;6272148;22;20022;-70
2021/12/26 04:24:47;;;;;;;1.17;1.17;;;;;;;;;;6245810;22;20314;-70
2021/12/26 04:27:12;;;;;;;0.60;0.20;;;;;;;;;;6272821;22;20349;-70
2021/12/26 04:29:37;;;;;;;0.38;0.38;;;;;;;;;;6273371;22;20409;-70
2021/12/26 04:32:03;;;;;;;2.00;1.83;;;;;;;;;;6273435;22;20075;-70
2021/12/26 04:34:28;;;;;;;0.30;0.30;;;;;;;;;;6272812;22;20491;-70
2021/12/26 04:36:53;;;;;;;1.10;1.10;;;;;;;;;;6273507;22;20000;-71
2021/12/26 04:39:18;;;;;;;1.30;1.30;;;;;;;;;;6272780;22;20007;-71
2021/12/26 04:41:46;;;;;;;0.85;0.85;;;;;;;;;;6273051;22;20010;-71
2021/12/26 04:44:12;;;;;;;0.10;0.10;;;;;;;;;;6272588;22;20038;-71
2021/12/26 04:46:37;;;;;;;0.52;0.43;;;;;;;;;;6273086;22;20004;-71
2021/12/26 04:49:02;;;;;;;0.00;0.00;;;;;;;;;;6273296;22;20010;-70
2021/12/26 04:51:28;;;;;;;0.00;0.00;;;;;;;;;;6272104;22;20026;-72
2021/12/26 04:53:53;;;;;;;1.70;1.42;;;;;;;;;;6273136;22;20002;-70
2021/12/26 04:56:18;;;;;;;2.72;2.63;;;;;;;;;;6272584;22;20003;-70
2021/12/26 04:58:43;;;;;;;0.00;0.00;;;;;;;;;;6273172;22;20027;-70
2021/12/26 05:01:09;;;;;;;0.10;0.10;;;;;;;;;;6273201;22;20015;-71
2021/12/26 05:03:34;;;;;;;0.50;0.50;;;;;;;;;;6272691;22;19999;-71
2021/12/26 05:05:59;;;;;;;0.63;0.63;;;;;;;;;;6272661;22;20000;-70
2021/12/26 05:08:24;;;;;;;1.42;1.40;;;;;;;;;;6272241;22;20007;-71
2021/12/26 05:10:50;;;;;;;0.40;0.40;;;;;;;;;;6272405;22;20000;-71
2021/12/26 05:13:15;;;;;;;1.27;1.27;;;;;;;;;;6272024;22;20002;-72
2021/12/26 05:15:40;;;;;;;0.00;0.00;;;;;;;;;;6272732;22;20069;-72
2021/12/26 05:18:06;;;;;;;1.90;1.75;;;;;;;;;;6272849;22;20015;-71
2021/12/26 05:20:31;;;;;;;0.90;0.90;;;;;;;;;;6271438;22;20087;-71
2021/12/26 05:22:57;;;;;;;0.30;0.30;;;;;;;;;;6272182;22;20008;-71
2021/12/26 05:25:23;;;;;;;0.20;0.20;;;;;;;;;;6271477;22;20422;-72
2021/12/26 05:27:49;;;;;;;0.15;0.15;;;;;;;;;;6272547;22;20008;-72
2021/12/26 05:30:15;;;;;;;0.20;0.20;;;;;;;;;;6272027;22;20664;-71
2021/12/26 05:32:41;;;;;;;0.00;0.00;;;;;;;;;;6272975;22;20353;-71
2021/12/26 05:35:10;;;;;;;0.00;0.00;;;;;;;;;;6272241;22;20417;-71
2021/12/26 05:37:36;;;;;;;4.18;0.93;;;;;;;;;;6271098;22;20024;-71
2021/12/26 05:40:03;;;;;;;0.00;0.00;;;;;;;;;;6272117;22;20693;-72
2021/12/26 05:42:29;;;;;;;0.40;0.40;;;;;;;;;;6271654;22;20425;-72
2021/12/26 05:44:54;;;;;;;0.00;0.00;;;;;;;;;;6272246;22;20058;-71
2021/12/26 05:47:20;;;;;;;0.15;0.05;;;;;;;;;;6272428;22;20050;-72
2021/12/26 05:49:51;;;;;;;0.00;0.00;;;;;;;;;;6271943;22;19999;-72
2021/12/26 05:52:18;;;;;;;0.88;0.88;;;;;;;;;;6272146;22;20429;-72
2021/12/26 05:54:43;;;;;;;1.55;0.63;;;;;;;;;;6272387;22;19992;-71
2021/12/26 05:57:12;;;;;;;2.22;2.03;;;;;;;;;;6272295;22;20000;-71
2021/12/26 05:59:37;;;;;;;1.17;1.17;;;;;;;;;;6272110;22;19999;-72
2021/12/26 06:02:02;;;;;;;0.57;0.25;;;;;;;;;;6272853;22;20048;-72
2021/12/26 06:04:30;;;;;;;0.90;0.90;;;;;;;;;;6244829;22;20141;-70
2021/12/26 06:06:56;;;;;;;2.38;2.08;;;;;;;;;;6272001;22;19995;-70
2021/12/26 06:09:21;;;;;;;1.00;0.98;;;;;;;;;;6271295;22;20007;-70
2021/12/26 06:11:47;;;;;;;1.10;1.00;;;;;;;;;;6244693;22;20313;-70
2021/12/26 06:14:13;;;;;;;0.38;0.38;;;;;;;;;;6272019;22;20041;-69
2021/12/26 06:16:38;;;;;;;0.35;0.35;;;;;;;;;;6271601;22;19991;-69
2021/12/26 06:19:03;;;;;;;0.00;0.00;;;;;;;;;;6244767;22;20008;-61
2021/12/26 06:21:29;;;;;;;0.00;0.00;;;;;;;;;;6271869;22;20027;-62
2021/12/26 06:23:54;;;;;;;0.00;0.00;;;;;;;;;;6271580;22;20387;-62
2021/12/26 06:26:21;;;;;;;0.20;0.20;;;;;;;;;;6270494;22;20011;-63
2021/12/26 06:28:46;;;;;;;0.20;0.17;;;;;;;;;;6272172;22;20004;-63
2021/12/26 06:31:11;;;;;;;0.00;0.00;;;;;;;;;;6272335;22;20071;-63
2021/12/26 06:33:37;;;;;;;0.10;0.10;;;;;;;;;;6271722;22;20002;-61
2021/12/26 06:36:02;;;;;;;0.65;0.65;;;;;;;;;;6271980;22;20004;-63
2021/12/26 06:38:27;;;;;;;0.85;0.85;;;;;;;;;;6271016;22;20008;-63
2021/12/26 06:40:53;;;;;;;0.00;0.00;;;;;;;;;;6271833;22;19995;-64
2021/12/26 06:43:18;;;;;;;0.17;0.17;;;;;;;;;;6271319;22;19995;-63
2021/12/26 06:45:43;;;;;;;0.00;0.00;;;;;;;;;;6272072;22;20035;-63
2021/12/26 06:48:08;;;;;;;0.00;0.00;;;;;;;;;;6272105;22;20334;-63
2021/12/26 06:50:35;;;;;;;0.20;0.20;;;;;;;;;;6271519;22;20657;-64
2021/12/26 06:53:00;;;;;;;0.45;0.45;;;;;;;;;;6244803;22;20004;-63
2021/12/26 06:55:25;;;;;;;0.43;0.43;;;;;;;;;;6271056;22;20329;-62
2021/12/26 06:57:51;;;;;;;0.68;0.68;;;;;;;;;;6271972;22;20418;-63
2021/12/26 07:00:16;;;;;;;0.05;0.00;;;;;;;;;;6271601;22;20315;-63
2021/12/26 07:02:42;;;;;;;1.08;1.08;;;;;;;;;;6272351;22;19999;-63
2021/12/26 07:05:08;;;;;;;0.35;0.35;;;;;;;;;;6271857;22;20086;-63
2021/12/26 07:07:33;;;;;;;0.30;0.30;;;;;;;;;;6271637;22;20027;-63
2021/12/26 07:09:59;;;;;;;0.55;0.50;;;;;;;;;;6272085;22;20370;-63
2021/12/26 07:12:25;;;;;;;0.47;0.47;;;;;;;;;;6271279;22;20692;-63
2021/12/26 07:14:50;;;;;;;0.90;0.90;;;;;;;;;;6271348;22;19996;-62
2021/12/26 07:17:15;;;;;;;0.98;0.95;;;;;;;;;;6272066;22;20498;-62
2021/12/26 07:19:41;;;;;;;2.58;1.00;;;;;;;;;;6271611;22;20078;-62
2021/12/26 07:22:07;;;;;;;0.08;0.08;;;;;;;;;;6245119;22;20057;-63
2021/12/26 07:24:33;;;;;;;0.10;0.10;;;;;;;;;;6271428;22;20046;-63
2021/12/26 07:26:58;;;;;;;1.00;0.57;;;;;;;;;;6271282;22;20015;-63
2021/12/26 07:29:26;;;;;;;1.27;0.98;;;;;;;;;;6271251;22;20407;-62
2021/12/26 07:31:51;;;;;;;2.50;2.40;;;;;;;;;;6273693;22;20000;-63
2021/12/26 07:34:17;;;;;;;1.17;1.17;;;;;;;;;;6273512;22;20045;-62
2021/12/26 07:36:42;;;;;;;1.65;1.65;;;;;;;;;;6246703;22;20418;-63
2021/12/26 07:39:08;;;;;;;0.68;0.68;;;;;;;;;;6273743;22;19999;-62
2021/12/26 07:41:33;;;;;;;0.57;0.57;;;;;;;;;;6273080;22;19999;-62
2021/12/26 07:43:58;;;;;;;1.98;0.32;;;;;;;;;;6273287;22;19995;-63
2021/12/26 07:46:24;;;;;;;1.30;1.20;;;;;;;;;;6273110;22;20004;-63
2021/12/26 07:48:49;;;;;;;0.63;0.63;;;;;;;;;;6273552;22;20083;-63
2021/12/26 07:51:19;;;;;;;1.35;1.25;;;;;;;;;;6273605;22;20314;-63
2021/12/26 07:53:46;;;;;;;0.95;0.95;;;;;;;;;;6273233;22;20049;-64
2021/12/26 07:56:11;;;;;;;0.05;0.05;;;;;;;;;;6273577;22;20057;-62
2021/12/26 07:58:37;;;;;;;0.05;0.05;;;;;;;;;;6273456;22;20086;-63
2021/12/26 08:01:02;;;;;;;0.10;0.10;;;;;;;;;;6273395;22;20046;-62
2021/12/26 08:03:28;;;;;;;0.00;0.00;;;;;;;;;;6273140;22;20007;-62
2021/12/26 08:05:53;;;;;;;2.42;0.38;;;;;;;;;;6273443;22;19995;-63
2021/12/26 08:08:18;;;;;;;0.00;0.00;;;;;;;;;;6273150;22;20031;-63
2021/12/26 08:10:43;;;;;;;0.22;0.22;;;;;;;;;;6273151;22;20000;-63
2021/12/26 08:13:08;;;;;;;0.88;0.88;;;;;;;;;;6273302;22;20000;-63
2021/12/26 08:15:34;;;;;;;0.32;0.32;;;;;;;;;;6272690;22;20413;-63
2021/12/26 08:17:59;;;;;;;0.17;0.17;;;;;;;;;;6273591;22;19996;-62
2021/12/26 08:20:24;;;;;;;1.90;1.15;;;;;;;;;;6272845;22;20008;-63
2021/12/26 08:22:49;;;;;;;3.25;2.95;;;;;;;;;;6271388;22;20430;-61
2021/12/26 08:25:15;;;;;;;0.90;0.57;;;;;;;;;;6245530;22;20020;-62
2021/12/26 08:27:40;;;;;;;0.82;0.82;;;;;;;;;;6271862;22;20012;-62
2021/12/26 08:30:06;;;;;;;0.22;0.22;;;;;;;;;;6272116;22;20034;-62
2021/12/26 08:32:34;;;;;;;3.08;1.95;;;;;;;;;;6272433;22;20019;-63
2021/12/26 08:35:00;;;;;;;0.00;0.00;;;;;;;;;;6272682;22;20017;-62
2021/12/26 08:37:27;;;;;;;3.97;3.70;;;;;;;;;;6272310;22;20030;-62
2021/12/26 08:39:52;;;;;;;1.00;1.00;;;;;;;;;;6271493;22;20079;-63
2021/12/26 08:42:17;;;;;;;0.70;0.70;;;;;;;;;;6269849;22;20456;-63
2021/12/26 08:44:42;;;;;;;13.38;12.80;;;;;;;;;;6270911;22;20080;-63
2021/12/26 08:47:09;;;;;;;1.70;1.60;;;;;;;;;;6271564;22;20310;-63
2021/12/26 08:49:35;;;;;;;4.60;4.15;;;;;;;;;;6270368;22;20370;-63
2021/12/26 08:52:00;;;;;;;7.63;6.97;;;;;;;;;;6270103;22;20046;-62
2021/12/26 08:54:28;;;;;;;3.67;3.35;;;;;;;;;;6270944;22;20002;-64
2021/12/26 08:56:53;;;;;;;9.10;5.90;;;;;;;;;;6271066;22;20026;-63
2021/12/26 08:59:19;;;;;;;3.50;3.22;;;;;;;;;;6271800;22;19995;-63
2021/12/26 09:01:46;;;;;;;0.00;0.00;;;;;;;;;;6271083;22;20062;-63
2021/12/26 09:04:12;;;;;;;4.32;2.95;;;;;;;;;;6272429;22;20023;-63
2021/12/26 09:06:37;;;;;;;13.38;6.28;;;;;;;;;;6268898;22;20003;-63
2021/12/26 09:09:03;;;;;;;0.25;0.25;;;;;;;;;;6272257;22;20360;-62
2021/12/26 09:11:28;;;;;;;2.72;2.30;;;;;;;;;;6270722;22;20410;-62
2021/12/26 09:13:54;;;;;;;0.95;0.95;;;;;;;;;;6272254;22;20007;-62
2021/12/26 09:16:19;;;;;;;0.98;0.98;;;;;;;;;;6271077;22;20079;-63
2021/12/26 09:18:44;;;;;;;1.23;1.02;;;;;;;;;;6271516;22;20014;-63
2021/12/26 09:21:09;;;;;;;1.80;1.80;;;;;;;;;;6244633;22;20011;-62
2021/12/26 09:23:34;;;;;;;2.17;2.08;;;;;;;;;;6272088;22;20011;-63
2021/12/26 09:26:00;;;;;;;16.10;10.05;;;;;;;;;;6272984;22;20012;-63
2021/12/26 09:28:25;;;;;;;14.40;13.38;;;;;;;;;;6273478;22;20023;-62
2021/12/26 09:30:51;;;;;;;37.50;17.65;;;;;;;;;;6273847;22;20010;-63
2021/12/26 09:33:19;;;;;;;0.45;0.45;;;;;;;;;;6273787;22;19999;-63
2021/12/26 09:35:45;;;;;;;0.20;0.20;;;;;;;;;;6272264;22;20413;-63
2021/12/26 09:38:11;;;;;;;0.00;0.00;;;;;;;;;;6272968;22;20034;-62
2021/12/26 09:40:36;;;;;;;0.80;0.80;;;;;;;;;;6271825;22;20003;-62
2021/12/26 09:43:01;;;;;;;0.00;0.00;;;;;;;;;;6273494;22;20003;-63
2021/12/26 09:45:26;;;;;;;4.78;1.58;;;;;;;;;;6273231;22;20074;-63
2021/12/26 09:47:52;;;;;;;1.85;1.75;;;;;;;;;;6272831;22;20087;-63
2021/12/26 09:50:19;;;;;;;1.95;1.85;;;;;;;;;;6272122;22;19996;-62
2021/12/26 09:52:45;;;;;;;4.32;3.95;;;;;;;;;;6271720;22;20004;-64
2021/12/26 09:55:11;;;;;;;1.73;1.13;;;;;;;;;;6272413;22;20004;-63
2021/12/26 09:57:36;;;;;;;0.00;0.00;;;;;;;;;;6272216;22;20034;-64
2021/12/26 10:00:20;;;;;;;0.00;0.00;;;;;;;;;;6273856;22;20413;-64
2021/12/26 10:02:45;;;;;;;0.00;0.00;;;;;;;;;;6274200;22;20006;-64
2021/12/26 10:05:11;;;;;;;0.82;0.82;;;;;;;;;;6273247;22;20000;-64
2021/12/26 10:07:36;;;;;;;1.40;1.38;;;;;;;;;;6271632;22;20000;-62
2021/12/26 10:10:05;;;;;;;1.35;1.35;;;;;;;;;;6271790;22;20325;-63
2021/12/26 10:12:37;;;;;;;1.73;1.65;;;;;;;;;;6271315;22;20019;-63
2021/12/26 10:15:03;;;;;;;2.72;2.53;;;;;;;;;;6272215;22;19992;-63
2021/12/26 10:17:28;;;;;;;0.28;0.28;;;;;;;;;;6271845;22;20033;-62
2021/12/26 10:20:14;;;;;;;4.22;3.65;;;;;;;;;;6245142;22;20016;-62
2021/12/26 10:22:39;;;;;;;0.00;0.00;;;;;;;;;;6271024;22;20015;-62
2021/12/26 10:25:12;;;;;;;1.45;1.45;;;;;;;;;;6271924;22;20007;-62
2021/12/26 10:27:40;;;;;;;1.40;1.40;;;;;;;;;;6210329;23;20024;-62
2021/12/26 10:30:06;;;;;;;0.00;0.00;;;;;;;;;;6211226;23;20388;-61
2021/12/26 10:32:37;;;;;;;0.38;0.38;;;;;;;;;;6209899;23;19996;-63
2021/12/26 10:35:06;;;;;;;1.38;1.25;;;;;;;;;;6210781;23;20308;-62
2021/12/26 10:37:33;;;;;;;0.05;0.05;;;;;;;;;;6209946;23;20000;-62
2021/12/26 10:40:00;;;;;;;4.47;2.88;;;;;;;;;;6210543;23;20079;-64
2021/12/26 10:42:29;;;;;;;1.55;1.45;;;;;;;;;;6209843;23;20000;-63
2021/12/26 10:44:56;;;;;;;4.28;3.22;;;;;;;;;;6210199;23;20035;-62
2021/12/26 10:47:22;;;;;;;1.65;0.90;;;;;;;;;;6210707;23;20001;-62
2021/12/26 10:49:52;;;;;;;3.53;3.42;;;;;;;;;;6208685;23;20012;-62
2021/12/26 10:52:21;;;;;;;3.60;2.75;;;;;;;;;;6210251;23;19996;-62
2021/12/26 10:54:54;;;;;;;0.00;0.00;;;;;;;;;;6210225;23;19997;-63
2021/12/26 10:57:21;;;;;;;2.55;2.33;;;;;;;;;;6210304;23;20032;-60
2021/12/26 10:59:48;;;;;;;1.48;0.80;;;;;;;;;;6209591;23;20011;-59
2021/12/26 11:02:27;;;;;;;0.77;0.77;;;;;;;;;;6210879;23;20002;-63
2021/12/26 11:04:53;;;;;;;0.00;0.00;;;;;;;;;;6210261;23;20054;-63
2021/12/26 11:07:20;;;;;;;0.90;0.90;;;;;;;;;;6212044;23;20381;-63
2021/12/26 11:09:45;;;;;;;3.70;2.47;;;;;;;;;;6211870;23;20093;-63
2021/12/26 11:12:10;;;;;;;0.32;0.32;;;;;;;;;;6212522;23;20141;-64
2021/12/26 11:14:54;;;;;;;0.45;0.45;;;;;;;;;;6211619;23;20012;-62
2021/12/26 11:17:42;;;;;;;7.10;6.28;;;;;;;;;;6211324;23;19996;-62
2021/12/26 11:20:07;;;;;;;3.70;2.17;;;;;;;;;;6212983;23;20005;-63
2021/12/26 11:22:32;;;;;;;0.05;0.05;;;;;;;;;;6212527;23;20005;-63
2021/12/26 11:24:58;;;;;;;5.10;4.70;;;;;;;;;;6212446;23;20001;-64
2021/12/26 11:27:24;;;;;;;0.85;0.85;;;;;;;;;;6268463;22;20263;-63
2021/12/26 11:29:49;;;;;;;2.95;2.85;;;;;;;;;;6272297;22;20031;-64
2021/12/26 11:32:15;;;;;;;1.27;0.60;;;;;;;;;;6273265;22;19996;-62
2021/12/26 11:34:41;;;;;;;0.45;0.45;;;;;;;;;;6272640;22;20333;-64
2021/12/26 11:37:07;;;;;;;1.95;1.85;;;;;;;;;;6273465;22;20003;-61
2021/12/26 11:39:37;;;;;;;0.25;0.25;;;;;;;;;;6273393;22;20007;-64
2021/12/26 11:42:06;;;;;;;6.60;6.10;;;;;;;;;;6244986;22;20015;-64
2021/12/26 11:44:51;;;;;;;1.27;1.17;;;;;;;;;;6272604;22;20023;-65
2021/12/26 11:47:27;;;;;;;0.00;0.00;;;;;;;;;;6272958;22;20222;-63
2021/12/26 11:50:08;;;;;;;0.03;0.03;;;;;;;;;;6273340;22;20066;-65
2021/12/26 11:52:52;;;;;;;0.00;0.00;;;;;;;;;;6273724;22;20006;-63
2021/12/26 11:55:38;;;;;;;9.07;3.83;;;;;;;;;;6273876;22;20004;-64
2021/12/26 11:58:15;;;;;;;3.97;3.65;;;;;;;;;;6273830;22;20007;-70
2021/12/26 12:00:46;;;;;;;2.40;2.17;;;;;;;;;;6274013;22;20011;-67
2021/12/26 12:03:22;;;;;;;0.98;0.88;;;;;;;;;;6272812;22;20010;-64
2021/12/26 12:05:48;;;;;;;4.38;2.08;;;;;;;;;;6272696;22;20003;-64
2021/12/26 12:08:15;;;;;;;2.97;2.30;;;;;;;;;;6273122;22;20053;-64
2021/12/26 12:10:47;;;;;;;1.55;1.45;;;;;;;;;;6272305;22;20008;-64
2021/12/26 12:13:12;;;;;;;1.38;1.27;;;;;;;;;;6272976;22;20000;-63
2021/12/26 12:15:54;;;;;;;2.78;2.58;;;;;;;;;;6272596;22;20126;-64
2021/12/26 12:18:22;;;;;;;0.00;0.00;;;;;;;;;;6273030;22;20047;-64
2021/12/26 12:21:07;;;;;;;5.22;2.47;;;;;;;;;;6272072;22;20003;-64
2021/12/26 12:23:32;;;;;;;0.77;0.77;;;;;;;;;;6272153;22;20070;-64
2021/12/26 12:25:57;;;;;;;0.70;0.70;;;;;;;;;;6272241;22;20417;-63
2021/12/26 12:28:24;;;;;;;0.70;0.70;;;;;;;;;;6272247;22;20014;-65
2021/12/26 12:30:52;;;;;;;0.00;0.00;;;;;;;;;;6271889;22;20004;-64
2021/12/26 12:33:25;;;;;;;3.83;2.60;;;;;;;;;;6271931;22;20019;-63
2021/12/26 12:35:59;;;;;;;1.48;1.48;;;;;;;;;;6272290;22;20368;-65
2021/12/26 12:38:24;;;;;;;0.32;0.32;;;;;;;;;;6273167;22;20495;-62
2021/12/26 12:40:49;;;;;;;1.38;1.10;;;;;;;;;;6272459;22;20000;-63
2021/12/26 12:43:16;;;;;;;0.68;0.68;;;;;;;;;;6272398;22;20011;-63
2021/12/26 12:45:54;;;;;;;2.30;2.10;;;;;;;;;;6271797;22;20648;-62
2021/12/26 12:48:25;;;;;;;7.72;5.40;;;;;;;;;;6272999;22;20325;-62
2021/12/26 12:50:58;;;;;;;2.47;2.25;;;;;;;;;;6272034;22;20007;-62
2021/12/26 12:53:37;;;;;;;0.00;0.00;;;;;;;;;;6272658;22;19996;-63
2021/12/26 12:56:02;;;;;;;0.98;0.98;;;;;;;;;;6273014;22;20418;-62
2021/12/26 12:58:31;;;;;;;0.75;0.70;;;;;;;;;;6271839;22;19996;-63
2021/12/26 13:00:57;;;;;;;0.38;0.38;;;;;;;;;;6272481;22;20007;-62
2021/12/26 13:03:22;;;;;;;1.17;1.17;;;;;;;;;;6272902;22;19995;-64
2021/12/26 13:05:49;;;;;;;0.52;0.52;;;;;;;;;;6272441;22;19995;-63
2021/12/26 13:08:17;;;;;;;0.22;0.22;;;;;;;;;;6273073;22;20007;-62
2021/12/26 13:10:47;;;;;;;0.00;0.00;;;;;;;;;;6272484;22;20041;-62
2021/12/26 13:13:14;;;;;;;0.95;0.73;;;;;;;;;;6272526;22;20353;-62
2021/12/26 13:16:08;;;;;;;0.00;0.00;;;;;;;;;;6272212;22;19992;-62
2021/12/26 13:18:35;;;;;;;0.77;0.77;;;;;;;;;;6239619;22;20157;-62
2021/12/26 13:21:02;;;;;;;0.03;0.03;;;;;;;;;;6272903;22;20000;-62
2021/12/26 13:23:29;;;;;;;0.13;0.13;;;;;;;;;;6272009;22;20002;-63
2021/12/26 13:25:54;;;;;;;3.58;1.88;;;;;;;;;;6272665;22;20701;-63
2021/12/26 13:28:21;;;;;;;1.15;1.15;;;;;;;;;;6272205;22;20015;-62
2021/12/26 13:30:50;;;;;;;0.15;0.15;;;;;;;;;;6271602;22;20103;-63
2021/12/26 13:33:16;;;;;;;0.20;0.20;;;;;;;;;;6272545;22;19999;-63
2021/12/26 13:35:42;;;;;;;1.33;1.30;;;;;;;;;;6272009;22;20000;-63
2021/12/26 13:38:07;;;;;;;0.22;0.17;;;;;;;;;;6272678;22;19995;-63
2021/12/26 13:40:35;;;;;;;3.95;3.67;;;;;;;;;;6272247;22;20000;-62
2021/12/26 13:43:03;;;;;;;0.00;0.00;;;;;;;;;;6272562;22;20506;-63
2021/12/26 13:45:33;;;;;;;0.13;0.13;;;;;;;;;;6272088;22;20000;-62
2021/12/26 13:47:58;;;;;;;;;;;;;;;;;;6272952;22;20219;-62
2021/12/26 13:50:24;;;;;;;0.75;0.52;;;;;;;;;;6272438;22;20316;-62
2021/12/26 13:53:19;;;;;;;0.00;0.00;;;;;;;;;;6271827;22;20053;-62
2021/12/26 13:55:44;;;;;;;0.00;0.00;;;;;;;;;;6238812;22;20007;-62
2021/12/26 13:58:11;;;;;;;0.00;0.00;;;;;;;;;;6272051;22;20004;-63
2021/12/26 14:00:46;;;;;;;0.32;0.32;;;;;;;;;;6271960;22;19995;-62
2021/12/26 14:03:11;;;;;;;0.35;0.35;;;;;;;;;;6272136;22;20002;-62
2021/12/26 14:05:37;;;;;;;1.00;0.75;;;;;;;;;;6271920;22;20004;-62
2021/12/26 14:08:11;;;;;;;0.77;0.77;;;;;;;;;;6272395;22;19996;-62
2021/12/26 14:10:36;;;;;;;1.30;1.30;;;;;;;;;;6271791;22;20141;-62
2021/12/26 14:13:05;;;;;;;0.00;0.00;;;;;;;;;;6271887;22;20023;-62
2021/12/26 14:15:37;;;;;;;0.00;0.00;;;;;;;;;;6271632;22;19996;-63
2021/12/26 14:18:04;;;;;;;0.95;0.95;;;;;;;;;;6272256;22;20417;-61
2021/12/26 14:20:42;;;;;;;1.95;1.85;;;;;;;;;;6271211;22;20004;-62
2021/12/26 14:23:40;;;;;;;0.00;0.00;;;;;;;;;;6272501;22;20002;-62
2021/12/26 14:26:10;;;;;;;0.00;0.00;;;;;;;;;;6242543;22;20348;-62
2021/12/26 14:28:38;;;;;;;;;;;;;;;;;;6271263;22;20014;-62
2021/12/26 14:31:06;;;;;;;3.03;1.65;;;;;;;;;;6271908;22;19907;-63
2021/12/26 14:33:49;;;;;;;0.00;0.00;;;;;;;;;;6271436;22;19998;-63
2021/12/26 14:36:17;;;;;;;0.40;0.40;;;;;;;;;;6272124;22;20031;-62
2021/12/26 14:39:00;;;;;;;0.00;0.00;;;;;;;;;;6271301;22;20070;-62
2021/12/26 14:41:45;;;;;;;1.40;1.27;;;;;;;;;;6272062;22;20027;-63
2021/12/26 14:44:16;;;;;;;0.25;0.25;;;;;;;;;;6271862;22;20075;-63
2021/12/26 14:46:41;;;;;;;4.32;4.22;;;;;;;;;;6271736;22;20084;-62